Latest Weather Observations for Coonawarra

IDS60801

Issued at 5:05 pm CDT Thursday 27 November 2014 (issued every 30 minutes, with the page automatically refreshed every 10 minutes)

About weather observations | Map of weather stations | Latest weather observations for SA | Other Formats
Station Details ID: 026091 Name: COONAWARRA Lat: -37.29 Lon: 140.83 Height: 57.0 m
Data from the previous 72 hours. | See also: Recent months at Coonawarra
Date/Time
CDT
Temp
°C
App
Temp
°C
Dew
Point
Rel
Hum
%
Delta-T
°C
Wind Press
QNH
hPa
Press
MSL
hPa
Rain
since 9 am
mm
Dir
 
Spd
km/h
Gust
km/h
Spd
kts
Gust
kts
27/05:00pm 25.6 20.4 2.4 22 11.2 S 19 26 10 14 1021.2 1021.2 0.0
27/04:30pm 25.4 20.1 2.0 21 11.2 SE 19 22 10 12 1021.4 1021.4 0.0
27/04:00pm 25.5 21.1 2.5 22 11.1 SSE 15 22 8 12 1021.7 1021.7 0.0
27/03:30pm 25.0 19.5 0.8 20 11.3 S 19 28 10 15 1022.0 1022.0 0.0
27/03:00pm 24.4 20.3 2.5 24 10.5 SE 13 24 7 13 1022.3 1022.3 0.0
27/02:30pm 25.5 21.2 3.2 23 10.9 SSE 15 22 8 12 1022.6 1022.6 0.0
27/02:00pm 23.7 19.6 2.5 25 10.1 ESE 13 20 7 11 1023.0 1023.0 0.0
27/01:30pm 23.0 18.6 2.9 26 9.6 S 15 24 8 13 1023.3 1023.3 0.0
27/01:00pm 22.3 19.0 4.6 31 8.7 S 11 22 6 12 1023.7 1023.6 0.0
27/12:30pm 21.8 17.6 3.7 30 8.7 SSE 15 30 8 16 1024.2 1024.1 0.0
27/12:00pm 20.4 17.2 5.0 36 7.5 SSE 11 20 6 11 1024.6 1024.5 0.0
27/11:30am 18.9 14.8 4.4 38 6.9 SSE 15 22 8 12 1025.1 1025.0 0.0
27/11:00am 18.9 14.9 5.0 40 6.7 SSE 15 26 8 14 1025.5 1025.4 0.0
27/10:30am 17.2 13.4 5.6 46 5.6 SSE 15 20 8 11 1025.8 1025.7 0.0
27/10:00am 16.0 12.1 5.3 49 5.1 SE 15 24 8 13 1026.0 1025.9 0.0
27/09:30am 15.8 10.9 5.2 49 5.0 ESE 20 28 11 15 1026.2 1026.1 0.0
27/09:00am 14.5 9.9 5.4 54 4.3 SE 19 30 10 16 1026.2 1026.1 0.0
27/08:30am 13.1 8.9 5.6 60 3.5 SE 17 24 9 13 1026.4 1026.3 0.0
27/08:00am 11.7 8.2 5.4 65 2.9 SSE 13 19 7 10 1026.5 1026.4 0.0
27/07:30am 9.6 6.9 5.6 76 1.8 SSE 9 15 5 8 1026.3 1026.2 0.0
27/07:00am 7.1 5.6 5.0 86 0.9 WSW 2 7 1 4 1026.1 1026.0 0.0
27/06:30am 3.8 2.3 2.8 93 0.4 CALM 0 0 0 0 1026.0 1025.9 0.0
27/06:00am 2.0 0.2 1.2 94 0.3 CALM 0 0 0 0 1025.7 1025.6 0.0
27/05:30am 2.9 0.5 1.9 93 0.4 SE 4 9 2 5 1025.5 1025.4 0.0
27/05:00am 5.7 2.8 4.5 92 0.5 SSE 9 13 5 7 1025.2 1025.1 0.0
27/04:30am 4.7 1.5 3.2 90 0.6 SSE 9 11 5 6 1025.0 1024.9 0.0
27/04:00am 5.9 2.6 4.5 91 0.6 SSE 11 15 6 8 1024.7 1024.6 0.0
27/03:30am 4.4 0.9 3.4 93 0.4 S 11 13 6 7 1024.8 1024.7 0.0
27/03:00am 3.6 2.0 2.6 93 0.4 CALM 0 0 0 0 1024.9 1024.8 0.0
27/02:30am 5.3 3.6 4.1 92 0.5 S 2 6 1 3 1024.9 1024.8 0.0
27/02:00am 6.9 4.1 5.3 89 0.7 S 9 13 5 7 1024.6 1024.5 0.0
27/01:30am 8.1 5.5 6.1 87 0.9 SSE 9 11 5 6 1024.7 1024.6 0.0
27/01:00am 8.4 5.5 6.4 87 0.9 S 11 13 6 7 1024.8 1024.7 0.0
27/12:30am 9.7 7.3 6.9 83 1.3 S 9 13 5 7 1025.2 1025.1 0.0
27/12:00am 10.4 7.7 7.2 80 1.5 S 11 15 6 8 1025.3 1025.2 0.0
 
Date/Time
CDT
Temp
°C
App
Temp
°C
Dew
Point
Rel
Hum
%
Delta-T
°C
Wind Press
QNH
hPa
Press
MSL
hPa
Rain
since 9 am
mm
Dir
 
Spd
km/h
Gust
km/h
Spd
kts
Gust
kts
26/11:30pm 9.6 7.3 7.3 85 1.1 S 9 13 5 7 1025.4 1025.3 0.0
26/11:00pm 9.9 7.1 6.9 81 1.4 S 11 15 6 8 1025.2 1025.1 0.0
26/10:30pm 9.6 6.7 6.6 81 1.4 S 11 13 6 7 1025.2 1025.1 0.0
26/10:00pm 11.2 8.8 6.8 74 2.1 S 9 13 5 7 1025.0 1024.9 0.0
26/09:30pm 12.2 9.3 6.5 68 2.7 S 11 15 6 8 1024.8 1024.7 0.0
26/09:00pm 13.2 10.0 6.7 64 3.1 S 13 20 7 11 1024.5 1024.4 0.0
26/08:30pm 14.0 10.4 6.8 62 3.5 S 15 20 8 11 1024.2 1024.1 0.0
26/08:00pm 15.2 10.3 6.8 57 4.1 S 22 30 12 16 1023.9 1023.8 0.0
26/07:30pm 16.6 11.4 7.4 54 4.6 S 24 33 13 18 1023.7 1023.6 0.0
26/07:00pm 17.9 12.0 7.6 51 5.2 S 28 35 15 19 1023.3 1023.3 0.0
26/06:30pm 18.0 13.1 8.5 53 4.9 S 24 37 13 20 1022.9 1022.9 0.0
26/06:00pm 18.2 13.8 9.0 55 4.8 S 22 32 12 17 1022.6 1022.6 0.0
26/05:30pm 18.1 15.0 10.2 60 4.2 S 17 22 9 12 1022.6 1022.6 0.0
26/05:00pm 17.6 14.3 11.5 67 3.3 S 20 32 11 17 1022.7 1022.7 0.0
26/04:30pm 17.2 14.4 12.7 75 2.5 S 19 28 10 15 1022.9 1022.9 0.0
26/04:00pm 16.9 15.4 13.1 78 2.1 SW 13 17 7 9 1022.9 1022.9 0.0
26/03:30pm 18.2 14.5 10.3 60 4.2 SW 20 32 11 17 1022.9 1022.9 0.0
26/03:00pm 18.7 15.3 10.5 59 4.4 SW 19 28 10 15 1023.0 1023.0 0.0
26/02:30pm 18.8 15.5 9.7 55 4.8 SSW 17 28 9 15 1023.1 1023.1 0.0
26/02:00pm 18.6 14.8 9.7 56 4.7 SW 20 30 11 16 1023.2 1023.2 0.0
26/01:30pm 18.5 15.4 8.9 53 5.0 SSW 15 22 8 12 1023.2 1023.2 0.0
26/01:00pm 18.6 15.8 8.5 52 5.2 SSW 13 22 7 12 1023.3 1023.3 0.0
26/12:30pm 18.1 14.6 8.6 54 4.9 SSW 17 24 9 13 1023.6 1023.5 0.0
26/12:00pm 18.4 15.7 9.0 54 4.9 SW 13 22 7 12 1023.7 1023.6 0.0
26/11:30am 17.2 14.4 8.6 57 4.4 SW 13 20 7 11 1023.8 1023.7 0.0
26/11:00am 17.0 14.4 9.3 60 4.0 WSW 13 20 7 11 1023.9 1023.8 0.0
26/10:30am 16.5 13.8 8.9 61 3.9 SSW 13 19 7 10 1023.8 1023.7 0.0
26/10:00am 16.0 13.6 8.7 62 3.7 WSW 11 19 6 10 1023.8 1023.7 0.0
26/09:30am 16.6 13.9 8.8 60 4.0 SSW 13 20 7 11 1023.6 1023.5 0.0
26/09:00am 15.3 12.1 8.4 63 3.5 SW 15 22 8 12 1023.6 1023.5 0.0
26/08:30am 14.7 11.8 8.1 64 3.3 SW 13 17 7 9 1023.1 1023.1 0.0
26/08:00am 14.4 12.3 8.2 66 3.1 SW 9 13 5 7 1022.9 1022.9 0.0
26/07:30am 13.3 11.4 9.1 76 2.1 W 9 11 5 6 1022.6 1022.6 0.0
26/07:00am 12.3 10.7 8.7 79 1.8 WNW 7 9 4 5 1022.5 1022.5 0.0
26/06:30am 11.4 9.8 7.9 79 1.7 NW 6 7 3 4 1022.3 1022.3 0.0
26/06:00am 10.9 10.4 7.8 81 1.5 CALM 0 0 0 0 1022.1 1022.1 0.0
26/05:30am 10.5 8.8 7.6 82 1.4 N 6 6 3 3 1021.8 1021.8 0.0
26/05:00am 10.2 9.5 7.0 80 1.5 CALM 0 0 0 0 1021.7 1021.7 0.0
26/04:30am 9.8 9.1 7.0 83 1.3 CALM 0 0 0 0 1021.5 1021.5 0.0
26/04:00am 9.2 7.3 6.8 85 1.1 NNW 6 7 3 4 1021.5 1021.5 0.0
26/03:30am 8.2 7.4 6.7 90 0.7 CALM 0 7 0 4 1021.3 1021.3 0.0
26/03:00am 7.3 6.4 6.2 93 0.5 CALM 0 0 0 0 1021.3 1021.3 0.0
26/02:30am 6.3 5.2 4.9 91 0.6 CALM 0 0 0 0 1021.4 1021.4 0.0
26/02:00am 6.2 5.0 4.8 91 0.6 CALM 0 0 0 0 1021.7 1021.7 0.0
26/01:30am 6.8 5.7 5.2 89 0.7 CALM 0 0 0 0 1021.9 1021.9 0.0
26/01:00am 7.6 5.6 6.1 90 0.7 N 6 6 3 3 1022.2 1022.2 0.0
26/12:30am 7.7 6.3 5.7 87 0.9 W 2 4 1 2 1022.5 1022.5 0.0
26/12:00am 7.8 6.5 6.0 88 0.8 W 2 6 1 3 1022.7 1022.7 0.0
 
Date/Time
CDT
Temp
°C
App
Temp
°C
Dew
Point
Rel
Hum
%
Delta-T
°C
Wind Press
QNH
hPa
Press
MSL
hPa
Rain
since 9 am
mm
Dir
 
Spd
km/h
Gust
km/h
Spd
kts
Gust
kts
25/11:30pm 8.0 5.8 6.0 87 0.9 W 7 7 4 4 1022.9 1022.9 0.0
25/11:00pm 7.5 5.3 5.5 87 0.9 W 6 6 3 3 1023.1 1023.1 0.0
25/10:30pm 7.7 5.6 5.9 88 0.8 SW 6 6 3 3 1023.1 1023.1 0.0
25/10:00pm 9.1 6.8 5.8 80 1.5 SW 7 7 4 4 1023.0 1023.0 0.0
25/09:30pm 10.5 7.9 6.0 74 2.1 WSW 9 11 5 6 1022.9 1022.9 0.0
25/09:00pm 11.8 9.1 5.8 66 2.8 WSW 9 13 5 7 1022.7 1022.7 0.0
25/08:30pm 13.7 10.2 5.4 57 3.9 SSW 13 19 7 10 1022.6 1022.6 0.0
25/08:00pm 14.8 10.4 5.0 52 4.6 SW 17 24 9 13 1022.4 1022.4 0.0
25/07:30pm 15.2 10.4 4.7 49 4.9 SW 19 26 10 14 1022.3 1022.3 0.0
25/07:00pm 15.7 10.8 4.9 48 5.1 SW 20 32 11 17 1022.1 1022.1 0.0
25/06:30pm 16.5 10.9 3.5 42 6.0 WSW 22 33 12 18 1021.7 1021.7 0.0
25/06:00pm 16.7 11.6 4.3 43 5.8 SW 20 30 11 16 1021.3 1021.3 0.0
25/05:30pm 17.6 12.4 3.7 39 6.5 SW 20 30 11 16 1021.1 1021.1 0.0
25/05:00pm 18.7 12.6 2.9 35 7.3 WSW 24 39 13 21 1020.9 1020.9 0.0
25/04:30pm 19.3 13.3 3.3 34 7.5 WSW 24 37 13 20 1020.9 1020.9 0.0
25/04:00pm 18.6 12.5 4.6 39 6.7 WSW 26 37 14 20 1020.8 1020.8 0.0
25/03:30pm 20.2 14.6 3.5 33 7.9 SW 22 32 12 17 1020.8 1020.8 0.0
25/03:00pm 19.0 12.9 2.8 34 7.5 WSW 24 37 13 20 1020.8 1020.8 0.0
25/02:30pm 20.1 14.3 4.6 36 7.5 WSW 24 35 13 19 1020.9 1020.9 0.0
25/02:00pm 19.1 12.7 5.4 40 6.7 W 28 43 15 23 1021.1 1021.1 0.0
25/01:30pm 18.4 12.8 5.4 42 6.3 WSW 24 35 13 19 1021.3 1021.3 0.0
25/01:00pm 18.5 12.9 5.6 42 6.3 WSW 24 32 13 17 1021.4 1021.4 0.0
25/12:30pm 18.5 12.7 6.1 44 6.1 WSW 26 35 14 19 1021.4 1021.4 0.0
25/12:00pm 17.8 11.8 5.1 43 6.1 W 26 41 14 22 1021.4 1021.4 0.0
25/11:30am 17.4 12.0 4.5 42 6.1 WSW 22 30 12 16 1021.4 1021.4 0.0
25/11:00am 17.5 12.2 3.2 38 6.6 WSW 20 33 11 18 1021.3 1021.3 0.0
25/10:30am 17.5 11.0 2.9 37 6.7 W 26 35 14 19 1021.3 1021.3 0.0
25/10:00am 17.6 12.5 3.9 40 6.4 WSW 20 32 11 17 1021.2 1021.2 0.0
25/09:30am 15.4 10.2 5.5 51 4.7 WSW 22 30 12 16 1021.2 1021.2 0.0
25/09:00am 15.6 11.0 5.5 51 4.8 W 19 28 10 15 1020.9 1020.9 0.0
25/08:30am 15.2 11.8 7.5 60 3.8 W 15 20 8 11 1020.8 1020.8 0.0
25/08:00am 14.4 10.2 7.5 63 3.4 WSW 19 24 10 13 1020.4 1020.4 0.0
25/07:30am 12.2 10.3 9.2 82 1.5 WNW 9 11 5 6 1020.1 1020.1 0.0
25/07:00am 9.8 8.2 8.6 92 0.6 WNW 7 9 4 5 1019.8 1019.8 0.0
25/06:30am 7.3 5.1 6.4 94 0.4 NNW 7 9 4 5 1019.5 1019.5 0.0
25/06:00am 6.3 3.6 5.4 94 0.4 N 9 13 5 7 1019.1 1019.1 0.0
25/05:30am 6.0 3.2 5.3 95 0.3 N 9 13 5 7 1018.7 1018.7 0.0
25/05:00am 6.5 3.4 5.6 94 0.4 NNW 11 13 6 7 1018.2 1018.2 0.0
25/04:30am 6.3 3.2 5.4 94 0.4 N 11 15 6 8 1017.9 1017.9 0.0
25/04:00am 5.7 2.9 5.0 95 0.3 NNW 9 9 5 5 1017.4 1017.4 0.0
25/03:30am 6.6 4.3 5.7 94 0.4 NNW 7 11 4 6 1017.3 1017.3 0.0
25/03:00am 6.6 3.9 5.7 94 0.4 NNW 9 11 5 6 1017.4 1017.4 0.0
25/02:30am 6.8 4.2 5.9 94 0.4 NW 9 11 5 6 1017.4 1017.4 0.0
25/02:00am 6.7 4.0 5.8 94 0.4 WNW 9 11 5 6 1017.5 1017.5 0.0
25/01:30am 6.9 4.2 5.6 91 0.6 NNW 9 9 5 5 1017.4 1017.4 0.0
25/01:00am 8.1 5.6 6.4 89 0.8 NNW 9 11 5 6 1017.4 1017.4 0.0
25/12:30am 8.7 5.4 6.3 85 1.1 NNW 13 15 7 8 1017.5 1017.5 0.0
25/12:00am 8.5 5.5 6.1 85 1.1 NNW 11 13 6 7 1017.2 1017.2 0.0
 
Date/Time
CDT
Temp
°C
App
Temp
°C
Dew
Point
Rel
Hum
%
Delta-T
°C
Wind Press
QNH
hPa
Press
MSL
hPa
Rain
since 9 am
mm
Dir
 
Spd
km/h
Gust
km/h
Spd
kts
Gust
kts
24/11:30pm 8.9 5.9 6.1 82 1.3 NW 11 13 6 7 1017.0 1017.0 0.0
24/11:00pm 8.7 6.1 6.1 84 1.2 WNW 9 11 5 6 1016.9 1016.9 0.0
24/10:30pm 10.1 7.5 6.2 77 1.8 W 9 11 5 6 1016.8 1016.8 0.0
24/10:00pm 11.7 8.4 6.2 69 2.6 W 13 15 7 8 1016.6 1016.6 0.0
24/09:30pm 12.1 9.1 6.2 67 2.8 W 11 15 6 8 1016.3 1016.2 0.0
24/09:00pm 12.9 9.2 6.2 64 3.2 W 15 20 8 11 1016.0 1015.9 0.0
24/08:30pm 13.5 9.2 5.4 58 3.8 WSW 17 26 9 14 1015.6 1015.5 0.0
24/08:00pm 14.0 9.6 4.5 52 4.4 WSW 17 24 9 13 1015.2 1015.1 0.0
24/07:30pm 15.3 10.0 5.2 51 4.8 WSW 22 32 12 17 1014.8 1014.7 0.0
24/07:00pm 15.9 9.8 4.9 48 5.2 WSW 26 39 14 21 1014.2 1014.1 0.0
24/06:30pm 15.8 9.9 5.6 50 4.9 WSW 26 41 14 22 1013.5 1013.4 0.0
24/06:00pm 16.1 9.7 7.0 54 4.5 WSW 30 43 16 23 1013.2 1013.1 0.0
24/05:47pm 16.7 9.9 5.0 46 5.6 WSW 30 50 16 27 1012.9 1012.8 0.0
24/05:30pm 17.9 10.9 3.9 39 6.6 WSW 30 44 16 24 1012.4 1012.3 0.0

Other Formats:

Comma delimited format used in spreadsheet applications
http://www.bom.gov.au/fwo/IDS60801/IDS60801.94817.axf

JavaScript Object Notation format (JSON) in row-major order
http://www.bom.gov.au/fwo/IDS60801/IDS60801.94817.json